< < Back
Terminal Aerodrome Forecast


Current Version              Previous Versions:   1  2  3  4  5  6  7  8  9  

Terminal Aerodrome Forecast

932
FTUS42 KGSP 020528
TAFGSP
TAF
KGSP 020528Z 0206/0306 25009KT P6SM SCT110 OVC250
      TEMPO 0206/0210 25004KT -SHRA OVC110
     FM021400 23009KT P6SM SCT070 BKN160
     FM021800 24010G18KT P6SM BKN070 PROB30 0218/0222 4SM TSRA
      BKN040CB
     FM030300 23010KT P6SM BKN070=

Latest METAR

028
SAUS70 KWBC 020900 RRG
MTRGSP
METAR KGSP 020853Z AUTO 26007KT 10SM OVC100 22/18 A2997 RMK AO2 SLP135
T02170183 55010


USA.gov is the U.S. government's official web portal to all federal, state and local government web resources and services.